sensor_id;sensor_type;location;lat;lon;timestamp;P1;durP1;ratioP1;P2;durP2;ratioP2
22861;SDS011;11598;50.652;6.172;2022-07-11T00:05:54;4.88;;;2.10;;
22861;SDS011;11598;50.652;6.172;2022-07-11T00:15:55;9.48;;;3.03;;
22861;SDS011;11598;50.652;6.172;2022-07-11T00:25:55;6.93;;;2.20;;
22861;SDS011;11598;50.652;6.172;2022-07-11T00:35:55;6.43;;;2.45;;
22861;SDS011;11598;50.652;6.172;2022-07-11T00:45:56;7.47;;;2.85;;
22861;SDS011;11598;50.652;6.172;2022-07-11T00:55:56;8.95;;;2.95;;
22861;SDS011;11598;50.652;6.172;2022-07-11T01:05:58;8.27;;;2.35;;
22861;SDS011;11598;50.652;6.172;2022-07-11T01:26:07;7.85;;;2.50;;
22861;SDS011;11598;50.652;6.172;2022-07-11T01:36:09;7.32;;;2.67;;
22861;SDS011;11598;50.652;6.172;2022-07-11T01:46:09;6.35;;;3.13;;
22861;SDS011;11598;50.652;6.172;2022-07-11T01:56:10;10.88;;;3.67;;
22861;SDS011;11598;50.652;6.172;2022-07-11T02:06:10;8.38;;;2.75;;
22861;SDS011;11598;50.652;6.172;2022-07-11T02:16:11;7.53;;;2.77;;
22861;SDS011;11598;50.652;6.172;2022-07-11T02:26:11;8.90;;;2.50;;
22861;SDS011;11598;50.652;6.172;2022-07-11T02:36:11;6.75;;;1.90;;
22861;SDS011;11598;50.652;6.172;2022-07-11T02:46:12;7.57;;;2.60;;
22861;SDS011;11598;50.652;6.172;2022-07-11T02:56:12;5.50;;;2.67;;
22861;SDS011;11598;50.652;6.172;2022-07-11T03:06:13;5.25;;;2.85;;
22861;SDS011;11598;50.652;6.172;2022-07-11T03:16:13;9.57;;;3.05;;
22861;SDS011;11598;50.652;6.172;2022-07-11T03:26:13;5.80;;;2.45;;
22861;SDS011;11598;50.652;6.172;2022-07-11T03:36:14;9.20;;;3.22;;
22861;SDS011;11598;50.652;6.172;2022-07-11T03:46:14;6.63;;;3.70;;
22861;SDS011;11598;50.652;6.172;2022-07-11T03:56:14;8.70;;;4.28;;
22861;SDS011;11598;50.652;6.172;2022-07-11T04:06:18;11.43;;;5.15;;
22861;SDS011;11598;50.652;6.172;2022-07-11T04:16:18;10.77;;;5.10;;
22861;SDS011;11598;50.652;6.172;2022-07-11T04:26:19;11.13;;;4.82;;
22861;SDS011;11598;50.652;6.172;2022-07-11T04:36:19;13.13;;;5.50;;
22861;SDS011;11598;50.652;6.172;2022-07-11T04:46:19;12.13;;;5.55;;
22861;SDS011;11598;50.652;6.172;2022-07-11T04:56:20;12.15;;;5.65;;
22861;SDS011;11598;50.652;6.172;2022-07-11T05:06:20;15.15;;;6.40;;
22861;SDS011;11598;50.652;6.172;2022-07-11T05:16:21;15.15;;;6.13;;
22861;SDS011;11598;50.652;6.172;2022-07-11T05:26:21;18.55;;;9.25;;
22861;SDS011;11598;50.652;6.172;2022-07-11T05:36:21;15.40;;;9.02;;
22861;SDS011;11598;50.652;6.172;2022-07-11T05:46:22;24.63;;;11.50;;
22861;SDS011;11598;50.652;6.172;2022-07-11T05:56:22;18.35;;;11.20;;
22861;SDS011;11598;50.652;6.172;2022-07-11T06:06:22;18.52;;;10.57;;
22861;SDS011;11598;50.652;6.172;2022-07-11T06:16:23;14.82;;;9.35;;
22861;SDS011;11598;50.652;6.172;2022-07-11T06:26:23;22.85;;;11.63;;
22861;SDS011;11598;50.652;6.172;2022-07-11T06:36:24;19.42;;;12.25;;
22861;SDS011;11598;50.652;6.172;2022-07-11T06:46:25;22.83;;;13.63;;
22861;SDS011;11598;50.652;6.172;2022-07-11T06:56:27;25.08;;;13.85;;
22861;SDS011;11598;50.652;6.172;2022-07-11T07:06:27;22.77;;;15.52;;
22861;SDS011;11598;50.652;6.172;2022-07-11T07:16:27;22.63;;;13.27;;
22861;SDS011;11598;50.652;6.172;2022-07-11T07:26:28;17.85;;;12.38;;
22861;SDS011;11598;50.652;6.172;2022-07-11T07:36:28;18.58;;;11.27;;
22861;SDS011;11598;50.652;6.172;2022-07-11T07:46:28;15.77;;;9.48;;
22861;SDS011;11598;50.652;6.172;2022-07-11T07:56:29;20.98;;;10.32;;
22861;SDS011;11598;50.652;6.172;2022-07-11T08:06:29;15.65;;;10.07;;
22861;SDS011;11598;50.652;6.172;2022-07-11T08:16:30;14.13;;;10.25;;
22861;SDS011;11598;50.652;6.172;2022-07-11T08:26:31;14.20;;;8.18;;
22861;SDS011;11598;50.652;6.172;2022-07-11T08:36:32;13.88;;;7.22;;
22861;SDS011;11598;50.652;6.172;2022-07-11T08:46:35;14.85;;;7.78;;
22861;SDS011;11598;50.652;6.172;2022-07-11T08:56:36;14.80;;;6.65;;
22861;SDS011;11598;50.652;6.172;2022-07-11T09:06:37;14.90;;;6.55;;
22861;SDS011;11598;50.652;6.172;2022-07-11T09:16:50;11.27;;;6.43;;
22861;SDS011;11598;50.652;6.172;2022-07-11T09:26:57;12.65;;;5.70;;
22861;SDS011;11598;50.652;6.172;2022-07-11T09:36:57;13.25;;;5.90;;
22861;SDS011;11598;50.652;6.172;2022-07-11T09:46:57;10.63;;;6.13;;
22861;SDS011;11598;50.652;6.172;2022-07-11T09:56:58;12.50;;;5.80;;
22861;SDS011;11598;50.652;6.172;2022-07-11T10:06:58;9.00;;;5.38;;
22861;SDS011;11598;50.652;6.172;2022-07-11T10:16:59;11.48;;;6.65;;
22861;SDS011;11598;50.652;6.172;2022-07-11T10:27:24;10.27;;;5.63;;
22861;SDS011;11598;50.652;6.172;2022-07-11T10:37:26;10.02;;;5.63;;
22861;SDS011;11598;50.652;6.172;2022-07-11T10:47:42;8.93;;;4.90;;
22861;SDS011;11598;50.652;6.172;2022-07-11T10:58:19;10.77;;;5.50;;
22861;SDS011;11598;50.652;6.172;2022-07-11T11:18:35;8.98;;;5.03;;
22861;SDS011;11598;50.652;6.172;2022-07-11T11:28:37;8.13;;;5.28;;
22861;SDS011;11598;50.652;6.172;2022-07-11T11:38:39;8.82;;;5.40;;
22861;SDS011;11598;50.652;6.172;2022-07-11T11:48:40;12.50;;;5.05;;
22861;SDS011;11598;50.652;6.172;2022-07-11T11:58:48;16.38;;;7.15;;
22861;SDS011;11598;50.652;6.172;2022-07-11T12:08:49;12.23;;;7.53;;
22861;SDS011;11598;50.652;6.172;2022-07-11T12:18:52;10.10;;;7.72;;
22861;SDS011;11598;50.652;6.172;2022-07-11T12:29:05;12.90;;;7.95;;
22861;SDS011;11598;50.652;6.172;2022-07-11T12:39:22;9.50;;;6.68;;
22861;SDS011;11598;50.652;6.172;2022-07-11T12:49:23;11.93;;;8.02;;
22861;SDS011;11598;50.652;6.172;2022-07-11T12:59:26;12.35;;;7.55;;
22861;SDS011;11598;50.652;6.172;2022-07-11T13:09:28;11.68;;;6.47;;
22861;SDS011;11598;50.652;6.172;2022-07-11T13:19:28;14.18;;;7.82;;
22861;SDS011;11598;50.652;6.172;2022-07-11T13:29:29;11.40;;;7.22;;
22861;SDS011;11598;50.652;6.172;2022-07-11T13:39:29;10.40;;;6.05;;
22861;SDS011;11598;50.652;6.172;2022-07-11T13:49:29;9.20;;;5.95;;
22861;SDS011;11598;50.652;6.172;2022-07-11T13:59:30;8.18;;;4.85;;
22861;SDS011;11598;50.652;6.172;2022-07-11T14:09:30;7.00;;;4.80;;
22861;SDS011;11598;50.652;6.172;2022-07-11T14:19:31;6.63;;;4.80;;
22861;SDS011;11598;50.652;6.172;2022-07-11T14:29:32;9.85;;;6.10;;
22861;SDS011;11598;50.652;6.172;2022-07-11T14:39:33;11.80;;;6.53;;
22861;SDS011;11598;50.652;6.172;2022-07-11T14:49:33;7.95;;;5.10;;
22861;SDS011;11598;50.652;6.172;2022-07-11T14:59:34;9.35;;;5.63;;
22861;SDS011;11598;50.652;6.172;2022-07-11T15:09:34;8.85;;;5.20;;
22861;SDS011;11598;50.652;6.172;2022-07-11T15:19:53;7.28;;;4.97;;
22861;SDS011;11598;50.652;6.172;2022-07-11T15:29:54;10.52;;;4.18;;
22861;SDS011;11598;50.652;6.172;2022-07-11T15:39:54;8.98;;;5.40;;
22861;SDS011;11598;50.652;6.172;2022-07-11T15:49:54;10.90;;;7.05;;
22861;SDS011;11598;50.652;6.172;2022-07-11T15:59:55;8.07;;;5.68;;
22861;SDS011;11598;50.652;6.172;2022-07-11T16:09:55;7.90;;;5.40;;
22861;SDS011;11598;50.652;6.172;2022-07-11T16:19:57;7.05;;;5.30;;
22861;SDS011;11598;50.652;6.172;2022-07-11T16:30:00;9.20;;;5.90;;
22861;SDS011;11598;50.652;6.172;2022-07-11T16:40:03;13.20;;;8.17;;
22861;SDS011;11598;50.652;6.172;2022-07-11T16:50:23;13.05;;;9.98;;
22861;SDS011;11598;50.652;6.172;2022-07-11T17:00:23;15.07;;;12.07;;
22861;SDS011;11598;50.652;6.172;2022-07-11T17:10:24;13.55;;;11.23;;
22861;SDS011;11598;50.652;6.172;2022-07-11T17:20:24;8.27;;;6.18;;
22861;SDS011;11598;50.652;6.172;2022-07-11T17:30:24;6.47;;;4.03;;
22861;SDS011;11598;50.652;6.172;2022-07-11T17:40:25;8.23;;;3.83;;
22861;SDS011;11598;50.652;6.172;2022-07-11T17:50:25;9.00;;;6.10;;
22861;SDS011;11598;50.652;6.172;2022-07-11T18:00:26;8.80;;;7.30;;
22861;SDS011;11598;50.652;6.172;2022-07-11T18:10:26;8.35;;;5.82;;
22861;SDS011;11598;50.652;6.172;2022-07-11T18:20:26;6.50;;;4.35;;
22861;SDS011;11598;50.652;6.172;2022-07-11T18:30:27;6.05;;;3.40;;
22861;SDS011;11598;50.652;6.172;2022-07-11T18:40:27;4.82;;;2.25;;
22861;SDS011;11598;50.652;6.172;2022-07-11T18:50:46;4.75;;;2.00;;
22861;SDS011;11598;50.652;6.172;2022-07-11T19:00:46;3.67;;;2.00;;
22861;SDS011;11598;50.652;6.172;2022-07-11T19:10:47;3.40;;;1.50;;
22861;SDS011;11598;50.652;6.172;2022-07-11T19:20:47;3.28;;;1.45;;
22861;SDS011;11598;50.652;6.172;2022-07-11T19:30:47;4.30;;;1.30;;
22861;SDS011;11598;50.652;6.172;2022-07-11T19:40:48;3.35;;;1.40;;
22861;SDS011;11598;50.652;6.172;2022-07-11T19:50:48;3.15;;;1.40;;
22861;SDS011;11598;50.652;6.172;2022-07-11T20:00:51;2.75;;;1.40;;
22861;SDS011;11598;50.652;6.172;2022-07-11T20:10:51;3.15;;;1.65;;
22861;SDS011;11598;50.652;6.172;2022-07-11T20:20:52;6.45;;;2.05;;
22861;SDS011;11598;50.652;6.172;2022-07-11T20:30:52;5.15;;;3.10;;
22861;SDS011;11598;50.652;6.172;2022-07-11T20:40:52;10.13;;;3.40;;
22861;SDS011;11598;50.652;6.172;2022-07-11T20:50:55;6.53;;;2.60;;
22861;SDS011;11598;50.652;6.172;2022-07-11T21:00:55;4.20;;;2.53;;
22861;SDS011;11598;50.652;6.172;2022-07-11T21:10:56;6.78;;;3.20;;
22861;SDS011;11598;50.652;6.172;2022-07-11T21:20:56;6.85;;;3.28;;
22861;SDS011;11598;50.652;6.172;2022-07-11T21:30:57;6.45;;;3.40;;
22861;SDS011;11598;50.652;6.172;2022-07-11T21:40:58;8.00;;;5.20;;
22861;SDS011;11598;50.652;6.172;2022-07-11T21:50:58;7.97;;;4.18;;
22861;SDS011;11598;50.652;6.172;2022-07-11T22:00:59;8.43;;;3.60;;
22861;SDS011;11598;50.652;6.172;2022-07-11T22:10:59;10.40;;;5.60;;
22861;SDS011;11598;50.652;6.172;2022-07-11T22:20:59;7.13;;;4.93;;
22861;SDS011;11598;50.652;6.172;2022-07-11T22:31:00;7.07;;;4.70;;
22861;SDS011;11598;50.652;6.172;2022-07-11T22:41:00;10.00;;;7.30;;
22861;SDS011;11598;50.652;6.172;2022-07-11T22:51:01;11.82;;;6.38;;
22861;SDS011;11598;50.652;6.172;2022-07-11T23:01:01;9.13;;;7.07;;
22861;SDS011;11598;50.652;6.172;2022-07-11T23:11:02;12.82;;;7.85;;
22861;SDS011;11598;50.652;6.172;2022-07-11T23:21:02;11.10;;;7.93;;
22861;SDS011;11598;50.652;6.172;2022-07-11T23:31:03;12.45;;;8.18;;
22861;SDS011;11598;50.652;6.172;2022-07-11T23:41:03;10.50;;;7.38;;
22861;SDS011;11598;50.652;6.172;2022-07-11T23:51:04;13.75;;;9.65;;
